Time;durP1;ratioP1;P1;durP2;ratioP2;P2;SDS_P1;SDS_P2;PMS_P1;PMS_P2;Temp;Humidity;BMP_temperature;BMP_pressure;BME280_temperature;BME280_humidity;BME280_pressure;Samples;Min_cycle;Max_cycle;Signal;HPM_P1;HPM_P2
2023/11/21 00:00:52;;;;;;;1.50;0.70;;;10.90;97.10;;;;;;4992574;28;20564;-43
2023/11/21 00:03:23;;;;;;;2.20;1.20;;;10.90;97.10;;;;;;5009746;28;20434;-45
2023/11/21 00:05:52;;;;;;;2.10;1.47;;;10.90;97.10;;;;;;5006085;28;20433;-44
2023/11/21 00:08:20;;;;;;;2.63;1.10;;;10.90;97.10;;;;;;5000353;28;20556;-43
2023/11/21 00:10:48;;;;;;;2.50;1.33;;;10.90;97.10;;;;;;4991953;28;20976;-44
2023/11/21 00:13:17;;;;;;;1.20;0.83;;;10.90;97.10;;;;;;5010771;28;20938;-44
2023/11/21 00:15:46;;;;;;;1.70;0.90;;;10.90;97.10;;;;;;5009104;28;20814;-44
2023/11/21 00:18:16;;;;;;;2.90;0.80;;;10.90;97.00;;;;;;4999663;28;20665;-44
2023/11/21 00:20:44;;;;;;;1.93;0.80;;;10.90;97.10;;;;;;4997892;28;20487;-43
2023/11/21 00:23:12;;;;;;;1.87;0.97;;;10.90;97.10;;;;;;5008474;28;20447;-43
2023/11/21 00:25:41;;;;;;;2.80;0.90;;;10.90;97.00;;;;;;4992545;28;20486;-44
2023/11/21 00:28:09;;;;;;;1.70;1.00;;;10.90;97.10;;;;;;4994953;28;20595;-44
2023/11/21 00:30:37;;;;;;;2.17;1.30;;;10.90;97.00;;;;;;4994585;28;20426;-45
2023/11/21 00:33:05;;;;;;;1.60;1.00;;;10.90;97.00;;;;;;4978191;28;20906;-44
2023/11/21 00:35:34;;;;;;;2.67;1.00;;;10.90;97.00;;;;;;4989218;28;20845;-44
2023/11/21 00:38:03;;;;;;;1.40;0.80;;;10.90;97.00;;;;;;5006743;28;20485;-43
2023/11/21 00:40:33;;;;;;;1.40;0.70;;;10.90;97.00;;;;;;4989391;28;20480;-44
2023/11/21 00:43:01;;;;;;;1.70;0.87;;;10.90;97.00;;;;;;5001060;28;20465;-43
2023/11/21 00:45:33;;;;;;;1.30;0.80;;;10.90;97.00;;;;;;5008119;28;20437;-43
2023/11/21 00:48:01;;;;;;;1.90;1.20;;;10.90;97.00;;;;;;5005668;28;21055;-44
2023/11/21 00:50:30;;;;;;;1.87;1.13;;;10.90;97.00;;;;;;4986109;28;20448;-44
2023/11/21 00:53:00;;;;;;;1.20;0.80;;;10.90;97.00;;;;;;5007897;28;20495;-43
2023/11/21 00:55:29;;;;;;;1.40;0.80;;;10.90;97.10;;;;;;4988414;28;21023;-43
2023/11/21 00:57:58;;;;;;;1.70;1.00;;;10.90;97.00;;;;;;4990689;28;20469;-44
2023/11/21 01:00:26;;;;;;;1.30;1.03;;;10.90;97.00;;;;;;4976176;28;20444;-44
2023/11/21 01:02:58;;;;;;;2.60;1.90;;;10.80;97.00;;;;;;5005955;28;20485;-44
2023/11/21 01:05:26;;;;;;;2.60;1.90;;;10.90;97.10;;;;;;4987333;28;20439;-43
2023/11/21 01:07:54;;;;;;;1.70;1.00;;;10.80;97.00;;;;;;4980824;28;20480;-44
2023/11/21 01:10:24;;;;;;;2.27;1.40;;;10.80;97.00;;;;;;5003255;28;20469;-44
2023/11/21 01:12:53;;;;;;;3.23;1.80;;;10.90;97.10;;;;;;5005792;28;20680;-44
2023/11/21 01:15:21;;;;;;;2.27;1.20;;;10.80;97.10;;;;;;4992517;28;20429;-43
2023/11/21 01:17:49;;;;;;;1.67;1.00;;;10.80;97.00;;;;;;4986354;28;20849;-44
2023/11/21 01:20:17;;;;;;;2.00;1.30;;;10.80;97.00;;;;;;5000697;28;20529;-43
2023/11/21 01:22:48;;;;;;;3.87;1.83;;;10.80;97.00;;;;;;5006433;28;20473;-43
2023/11/21 01:25:17;;;;;;;3.27;2.00;;;10.80;97.50;;;;;;4981541;28;20789;-44
2023/11/21 01:27:46;;;;;;;1.47;0.97;;;10.80;97.10;;;;;;4983034;28;20527;-43
2023/11/21 01:30:16;;;;;;;1.83;1.63;;;10.80;97.00;;;;;;4991733;28;20784;-44
2023/11/21 01:32:44;;;;;;;2.50;1.50;;;10.80;97.00;;;;;;4993011;28;20471;-43
2023/11/21 01:35:13;;;;;;;2.30;1.37;;;10.80;97.00;;;;;;5003028;28;20467;-44
2023/11/21 01:37:41;;;;;;;3.60;2.17;;;10.80;97.00;;;;;;4981618;28;20485;-44
2023/11/21 01:40:13;;;;;;;4.27;2.80;;;10.80;97.50;;;;;;4992309;28;20516;-44
2023/11/21 01:42:44;;;;;;;3.53;1.77;;;10.80;97.00;;;;;;4984154;28;21289;-44
2023/11/21 01:45:14;;;;;;;2.70;1.63;;;10.80;97.00;;;;;;4982901;28;20794;-44
2023/11/21 01:47:45;;;;;;;3.87;1.67;;;10.80;97.00;;;;;;4988160;28;20467;-44
2023/11/21 01:50:17;;;;;;;2.20;1.73;;;10.80;97.00;;;;;;4983927;28;21067;-44
2023/11/21 01:52:46;;;;;;;2.50;1.10;;;10.80;97.00;;;;;;5003349;28;20502;-44
2023/11/21 01:55:17;;;;;;;2.87;1.80;;;10.80;97.00;;;;;;5006000;28;20452;-44
2023/11/21 01:57:56;;;;;;;2.50;1.47;;;10.80;96.90;;;;;;4970183;28;20848;-45
2023/11/21 02:00:27;;;;;;;1.77;1.43;;;10.80;97.00;;;;;;5007659;28;20457;-44
2023/11/21 02:02:57;;;;;;;3.83;1.10;;;10.80;97.00;;;;;;5002652;28;20567;-43
2023/11/21 02:05:26;;;;;;;1.80;1.50;;;10.80;97.00;;;;;;4976763;28;20443;-44
2023/11/21 02:07:54;;;;;;;2.87;1.30;;;10.80;96.90;;;;;;4991118;28;20474;-44
2023/11/21 02:10:23;;;;;;;2.30;1.70;;;10.80;97.00;;;;;;5004051;28;20437;-43
2023/11/21 02:12:53;;;;;;;3.40;1.27;;;10.80;96.90;;;;;;4975014;28;20459;-44
2023/11/21 02:15:22;;;;;;;2.13;1.33;;;10.80;96.90;;;;;;4988754;28;20444;-44
2023/11/21 02:17:53;;;;;;;1.83;1.30;;;10.80;96.90;;;;;;4969455;28;20579;-44
2023/11/21 02:20:24;;;;;;;2.87;1.37;;;10.80;96.90;;;;;;4988342;28;20524;-44
2023/11/21 02:22:59;;;;;;;1.87;1.17;;;10.80;96.90;;;;;;4988932;28;20487;-44
2023/11/21 02:25:28;;;;;;;2.00;1.40;;;10.80;96.90;;;;;;4978893;28;21040;-43
2023/11/21 02:27:58;;;;;;;2.83;1.37;;;10.80;96.90;;;;;;4993012;28;20475;-44
2023/11/21 02:30:27;;;;;;;1.70;1.00;;;10.80;96.90;;;;;;5002666;28;20427;-43
2023/11/21 02:32:58;;;;;;;3.67;1.37;;;10.80;96.90;;;;;;5005867;28;20760;-45
2023/11/21 02:35:26;;;;;;;2.53;1.10;;;10.80;96.90;;;;;;4999438;28;20429;-44
2023/11/21 02:37:56;;;;;;;2.33;1.00;;;10.80;96.90;;;;;;4991830;28;21020;-44
2023/11/21 02:40:26;;;;;;;1.60;1.07;;;10.80;96.90;;;;;;4988132;28;20470;-44
2023/11/21 02:42:55;;;;;;;3.00;1.37;;;10.80;96.90;;;;;;5005931;28;20476;-43
2023/11/21 02:45:24;;;;;;;2.17;1.03;;;10.80;96.90;;;;;;4989563;28;20437;-44
2023/11/21 02:47:56;;;;;;;2.47;1.37;;;10.80;96.90;;;;;;4992296;28;20536;-44
2023/11/21 02:50:26;;;;;;;2.07;1.30;;;10.80;96.90;;;;;;4984519;28;20434;-44
2023/11/21 02:52:57;;;;;;;3.77;1.93;;;10.80;96.90;;;;;;5005846;28;20475;-44
2023/11/21 02:55:26;;;;;;;1.80;1.33;;;10.80;96.90;;;;;;5003008;28;20452;-43
2023/11/21 02:57:56;;;;;;;2.33;1.40;;;10.80;96.90;;;;;;4976253;28;21005;-44
2023/11/21 03:00:26;;;;;;;2.10;1.30;;;10.80;96.90;;;;;;5003946;28;20432;-44
2023/11/21 03:02:55;;;;;;;3.23;2.33;;;10.80;96.90;;;;;;4999222;28;20481;-44
2023/11/21 03:05:23;;;;;;;2.80;1.67;;;10.80;96.90;;;;;;4983032;28;20451;-44
2023/11/21 03:07:51;;;;;;;2.67;1.90;;;10.80;96.90;;;;;;4967312;28;20887;-44
2023/11/21 03:10:21;;;;;;;1.83;1.10;;;10.80;96.90;;;;;;4987700;28;20447;-43
2023/11/21 03:12:50;;;;;;;2.10;1.43;;;10.80;96.90;;;;;;4978401;28;20462;-43
2023/11/21 03:15:18;;;;;;;2.83;1.50;;;10.80;96.90;;;;;;5005912;28;20473;-44
2023/11/21 03:17:49;;;;;;;2.20;1.23;;;10.80;96.90;;;;;;4973462;28;20504;-44
2023/11/21 03:20:17;;;;;;;2.10;1.57;;;10.80;96.90;;;;;;4989687;28;20863;-44
2023/11/21 03:22:45;;;;;;;3.60;1.70;;;10.80;97.00;;;;;;4998628;28;20475;-43
2023/11/21 03:25:14;;;;;;;1.97;1.30;;;10.80;96.90;;;;;;4996533;28;20474;-44
2023/11/21 03:27:44;;;;;;;4.47;2.57;;;10.80;96.90;;;;;;4982708;28;20560;-45
2023/11/21 03:30:13;;;;;;;4.60;3.03;;;10.80;96.90;;;;;;4984064;28;21087;-44
2023/11/21 03:32:42;;;;;;;3.10;1.93;;;10.80;96.90;;;;;;4989228;28;20461;-43
2023/11/21 03:35:10;;;;;;;2.27;1.40;;;10.80;96.90;;;;;;4996063;28;20447;-43
2023/11/21 03:37:41;;;;;;;3.53;1.97;;;10.80;96.90;;;;;;4966054;28;20478;-44
2023/11/21 03:40:12;;;;;;;1.80;1.10;;;10.80;96.90;;;;;;4982880;28;20448;-44
2023/11/21 03:42:40;;;;;;;1.70;1.10;;;10.80;96.90;;;;;;5006325;28;20562;-44
2023/11/21 03:45:12;;;;;;;2.23;1.23;;;10.80;96.90;;;;;;4977239;28;20753;-44
2023/11/21 03:47:41;;;;;;;1.80;1.50;;;10.80;96.90;;;;;;4989731;28;20644;-43
2023/11/21 03:50:10;;;;;;;2.97;1.67;;;10.80;96.90;;;;;;4979738;28;20465;-44
2023/11/21 03:52:39;;;;;;;2.37;1.33;;;10.80;96.90;;;;;;4994703;28;20549;-44
2023/11/21 03:55:07;;;;;;;2.10;0.93;;;10.80;96.90;;;;;;5003365;28;20681;-44
2023/11/21 03:57:35;;;;;;;3.17;1.40;;;10.80;96.90;;;;;;4990305;28;20480;-43
2023/11/21 04:00:08;;;;;;;1.30;0.83;;;10.80;96.90;;;;;;4987403;28;20446;-45
2023/11/21 04:02:40;;;;;;;1.90;1.20;;;10.80;96.80;;;;;;5001968;28;20511;-45
2023/11/21 04:05:09;;;;;;;2.60;1.60;;;10.80;96.80;;;;;;4980517;28;20459;-44
2023/11/21 04:07:38;;;;;;;2.60;1.43;;;10.70;96.80;;;;;;4996100;28;20479;-45
2023/11/21 04:10:08;;;;;;;1.60;1.13;;;10.80;96.90;;;;;;4987616;28;21031;-45
2023/11/21 04:12:36;;;;;;;1.80;1.10;;;10.80;96.80;;;;;;5006829;28;20468;-44
2023/11/21 04:15:05;;;;;;;1.97;1.13;;;10.70;96.80;;;;;;4998271;28;20965;-44
2023/11/21 04:17:33;;;;;;;1.77;1.10;;;10.80;96.80;;;;;;4997967;28;20471;-44
2023/11/21 04:20:03;;;;;;;2.80;1.27;;;10.70;96.80;;;;;;4991763;28;20837;-44
2023/11/21 04:22:31;;;;;;;2.00;1.23;;;10.70;96.80;;;;;;5007533;28;20562;-44
2023/11/21 04:24:59;;;;;;;2.27;1.60;;;10.70;96.80;;;;;;4993416;28;20457;-44
2023/11/21 04:27:27;;;;;;;2.53;1.07;;;10.70;96.80;;;;;;4992514;28;20503;-44
2023/11/21 04:29:55;;;;;;;2.30;1.40;;;10.70;96.80;;;;;;5000807;28;20449;-44
2023/11/21 04:32:23;;;;;;;3.40;1.70;;;10.70;96.80;;;;;;5003590;28;20481;-44
2023/11/21 04:34:51;;;;;;;2.10;1.30;;;10.70;96.80;;;;;;5007335;28;20784;-44
2023/11/21 04:37:21;;;;;;;2.90;1.40;;;10.70;96.80;;;;;;5002446;28;20469;-44
2023/11/21 04:39:49;;;;;;;5.00;1.20;;;10.70;96.80;;;;;;5000433;28;20463;-44
2023/11/21 04:42:17;;;;;;;2.13;1.17;;;10.70;96.80;;;;;;5000747;28;20479;-44
2023/11/21 04:44:45;;;;;;;1.60;1.20;;;10.70;96.90;;;;;;5010354;28;20920;-45
2023/11/21 04:47:13;;;;;;;3.30;1.50;;;10.70;96.80;;;;;;4990581;28;20541;-45
2023/11/21 04:49:43;;;;;;;2.73;1.40;;;10.70;96.90;;;;;;4996472;28;20441;-44
2023/11/21 04:52:11;;;;;;;3.43;2.07;;;10.70;96.80;;;;;;4995965;28;20463;-44
2023/11/21 04:54:41;;;;;;;1.50;0.70;;;10.70;96.90;;;;;;5006375;28;20427;-45
2023/11/21 04:57:09;;;;;;;2.53;1.20;;;10.70;96.80;;;;;;4986851;28;20489;-44
2023/11/21 04:59:37;;;;;;;2.73;1.80;;;10.70;96.80;;;;;;5001415;28;20435;-43
2023/11/21 05:02:06;;;;;;;2.40;1.23;;;10.70;96.80;;;;;;5000162;28;20473;-44
2023/11/21 05:04:34;;;;;;;3.27;2.00;;;10.70;96.80;;;;;;5002593;28;20481;-44
2023/11/21 05:07:02;;;;;;;4.93;1.17;;;10.70;96.70;;;;;;4998833;28;20861;-45
2023/11/21 05:09:33;;;;;;;1.40;0.93;;;10.70;96.80;;;;;;5001568;28;20952;-44
2023/11/21 05:12:03;;;;;;;2.50;1.90;;;10.70;96.70;;;;;;5006846;28;20479;-44
2023/11/21 05:14:31;;;;;;;2.00;1.20;;;10.70;96.80;;;;;;5010948;28;20436;-44
2023/11/21 05:16:59;;;;;;;2.33;1.50;;;10.70;96.70;;;;;;5001453;28;20495;-44
2023/11/21 05:19:28;;;;;;;3.20;1.70;;;10.70;96.80;;;;;;4983805;28;20449;-44
2023/11/21 05:21:56;;;;;;;1.90;1.10;;;10.70;96.80;;;;;;5003813;28;21005;-45
2023/11/21 05:24:24;;;;;;;4.70;1.50;;;10.70;96.80;;;;;;4999447;28;20457;-44
2023/11/21 05:26:52;;;;;;;1.97;1.20;;;10.70;96.70;;;;;;4983647;28;20474;-44
2023/11/21 05:29:22;;;;;;;2.10;1.50;;;10.70;96.80;;;;;;5009095;28;20531;-46
2023/11/21 05:31:50;;;;;;;1.80;1.20;;;10.70;96.70;;;;;;4986618;28;20455;-45
2023/11/21 05:34:20;;;;;;;1.90;1.40;;;10.70;96.70;;;;;;4995364;28;20457;-44
2023/11/21 05:36:48;;;;;;;3.53;1.80;;;10.70;96.80;;;;;;4982049;28;20467;-44
2023/11/21 05:39:17;;;;;;;5.30;2.93;;;10.70;96.80;;;;;;5005190;28;20452;-44
2023/11/21 05:41:45;;;;;;;3.20;1.93;;;10.70;96.80;;;;;;4986671;28;20462;-44
2023/11/21 05:44:16;;;;;;;4.60;2.40;;;10.70;96.80;;;;;;5002771;28;20844;-44
2023/11/21 05:46:46;;;;;;;2.03;1.43;;;10.70;96.90;;;;;;4979481;28;20464;-44
2023/11/21 05:49:15;;;;;;;1.80;1.33;;;10.70;96.90;;;;;;5010255;28;20486;-44
2023/11/21 05:51:45;;;;;;;3.20;1.53;;;10.70;96.80;;;;;;4987103;28;20467;-44
2023/11/21 05:54:13;;;;;;;1.90;1.23;;;10.70;96.80;;;;;;5010566;28;20539;-45
2023/11/21 05:56:41;;;;;;;3.00;1.37;;;10.70;96.80;;;;;;4998804;28;20490;-45
2023/11/21 05:59:10;;;;;;;1.93;1.20;;;10.70;96.80;;;;;;4994950;28;20440;-45
2023/11/21 06:01:38;;;;;;;4.00;1.57;;;10.70;96.70;;;;;;4993985;28;20469;-44
2023/11/21 06:04:09;;;;;;;2.07;1.23;;;10.70;96.70;;;;;;4995520;28;20554;-44
2023/11/21 06:06:37;;;;;;;2.10;1.20;;;10.70;96.70;;;;;;5003900;28;20479;-45
2023/11/21 06:09:08;;;;;;;2.30;1.33;;;10.70;96.70;;;;;;5001489;28;20959;-44
2023/11/21 06:11:37;;;;;;;1.27;0.90;;;10.70;96.70;;;;;;4989959;28;20529;-44
2023/11/21 06:14:07;;;;;;;2.07;1.27;;;10.70;96.70;;;;;;4994456;28;20490;-45
2023/11/21 06:16:35;;;;;;;4.60;1.70;;;10.70;96.70;;;;;;5004415;28;20871;-44
2023/11/21 06:19:05;;;;;;;3.23;1.27;;;10.70;96.70;;;;;;5005042;28;20435;-44
2023/11/21 06:21:35;;;;;;;2.17;1.13;;;10.70;96.70;;;;;;5000255;28;20472;-44
2023/11/21 06:24:03;;;;;;;3.10;2.03;;;10.70;96.70;;;;;;4996815;28;20473;-44
2023/11/21 06:26:31;;;;;;;3.03;1.60;;;10.70;97.00;;;;;;4992315;28;20475;-44
2023/11/21 06:29:00;;;;;;;2.20;1.17;;;10.70;96.70;;;;;;5006586;28;20471;-44
2023/11/21 06:31:29;;;;;;;1.73;1.13;;;10.70;96.70;;;;;;4998088;28;20539;-44
2023/11/21 06:33:59;;;;;;;2.00;1.30;;;10.70;96.70;;;;;;4997103;28;20439;-44
2023/11/21 06:36:27;;;;;;;2.47;1.03;;;10.70;96.70;;;;;;4999597;28;20457;-44
2023/11/21 06:38:57;;;;;;;1.70;1.00;;;10.70;96.70;;;;;;4990181;28;20498;-44
2023/11/21 06:41:25;;;;;;;2.17;1.47;;;10.70;96.70;;;;;;4987072;28;20455;-44
2023/11/21 06:43:53;;;;;;;2.00;1.20;;;10.70;96.70;;;;;;4990058;28;20564;-44
2023/11/21 06:46:21;;;;;;;2.70;1.13;;;10.70;96.70;;;;;;5004801;28;20465;-44
2023/11/21 06:48:49;;;;;;;1.43;0.80;;;10.70;96.70;;;;;;5006612;28;20448;-44
2023/11/21 06:51:17;;;;;;;1.50;1.00;;;10.70;96.70;;;;;;5000588;28;20460;-44
2023/11/21 06:53:47;;;;;;;4.70;2.57;;;10.70;96.70;;;;;;5008721;28;20784;-44
2023/11/21 06:56:20;;;;;;;2.20;1.13;;;10.70;96.70;;;;;;4990021;28;20457;-43
2023/11/21 06:58:48;;;;;;;2.70;1.67;;;10.70;96.70;;;;;;4988141;28;20427;-44
2023/11/21 07:01:17;;;;;;;3.07;1.60;;;10.70;96.70;;;;;;5007082;28;20456;-44
2023/11/21 07:03:45;;;;;;;1.67;1.10;;;10.70;96.70;;;;;;5005364;28;20722;-46
2023/11/21 07:06:13;;;;;;;2.10;1.23;;;10.60;96.70;;;;;;4978936;28;20463;-44
2023/11/21 07:08:48;;;;;;;3.00;1.37;;;10.70;96.70;;;;;;4981380;28;20473;-44
2023/11/21 07:11:16;;;;;;;1.97;1.30;;;10.70;96.80;;;;;;4997248;28;20467;-44
2023/11/21 07:13:46;;;;;;;5.23;2.43;;;10.60;96.70;;;;;;5008474;28;20422;-45
2023/11/21 07:16:18;;;;;;;1.90;1.20;;;10.70;96.80;;;;;;4996480;28;20932;-43
2023/11/21 07:18:49;;;;;;;2.13;1.20;;;10.60;96.70;;;;;;4996461;28;20457;-44
2023/11/21 07:21:17;;;;;;;1.80;1.30;;;10.60;96.70;;;;;;4998551;28;20469;-44
2023/11/21 07:23:45;;;;;;;2.00;1.37;;;10.60;96.70;;;;;;4993338;28;20428;-43
2023/11/21 07:26:13;;;;;;;2.10;1.37;;;10.60;96.70;;;;;;4972858;28;20553;-44
2023/11/21 07:28:43;;;;;;;3.17;1.60;;;10.60;96.70;;;;;;5004957;28;20431;-44
2023/11/21 07:31:13;;;;;;;2.93;1.27;;;10.60;96.70;;;;;;4999516;28;20530;-44
2023/11/21 07:33:42;;;;;;;3.10;1.70;;;10.60;96.60;;;;;;4998076;28;20807;-44
2023/11/21 07:36:11;;;;;;;2.47;1.30;;;10.60;96.60;;;;;;4993555;28;20456;-44
2023/11/21 07:38:40;;;;;;;3.47;1.67;;;10.60;96.60;;;;;;4974360;28;20935;-44
2023/11/21 07:41:08;;;;;;;4.50;2.63;;;10.60;96.70;;;;;;4997232;28;20468;-43
2023/11/21 07:43:53;;;;;;;2.43;1.40;;;10.60;96.70;;;;;;5008812;28;20423;-44
2023/11/21 07:46:23;;;;;;;2.70;1.60;;;10.60;96.60;;;;;;5008363;28;20553;-44
2023/11/21 07:48:52;;;;;;;2.67;1.50;;;10.60;96.70;;;;;;4993291;28;20990;-43
2023/11/21 07:51:20;;;;;;;1.83;1.23;;;10.60;96.60;;;;;;4979948;28;20463;-43
2023/11/21 07:53:48;;;;;;;2.27;1.60;;;10.60;96.60;;;;;;5008820;28;20479;-43
2023/11/21 07:56:16;;;;;;;1.97;1.50;;;10.60;96.70;;;;;;5003333;28;20481;-43
2023/11/21 07:58:45;;;;;;;3.80;1.40;;;10.60;96.60;;;;;;5004422;28;20433;-44
2023/11/21 08:01:13;;;;;;;1.80;1.30;;;10.60;96.60;;;;;;4995577;28;20506;-44
2023/11/21 08:03:44;;;;;;;2.73;1.30;;;10.60;96.60;;;;;;4995188;28;20460;-44
2023/11/21 08:06:12;;;;;;;2.57;1.40;;;10.60;96.60;;;;;;4975696;28;20472;-43
2023/11/21 08:08:40;;;;;;;1.97;1.20;;;10.60;96.70;;;;;;4990752;28;20496;-44
2023/11/21 08:11:10;;;;;;;1.90;1.20;;;10.60;96.70;;;;;;4988080;28;20510;-43
2023/11/21 08:13:38;;;;;;;3.67;1.67;;;10.60;96.60;;;;;;4993759;28;20493;-43
2023/11/21 08:16:07;;;;;;;2.90;1.77;;;10.60;96.60;;;;;;4963303;28;20423;-44
2023/11/21 08:18:35;;;;;;;2.30;1.30;;;10.60;96.70;;;;;;4978224;28;20836;-44
2023/11/21 08:21:05;;;;;;;2.30;1.43;;;10.70;96.70;;;;;;4987884;28;20452;-44
2023/11/21 08:23:36;;;;;;;2.80;2.00;;;10.60;96.60;;;;;;4979303;28;20926;-44
2023/11/21 08:26:06;;;;;;;2.83;1.80;;;10.60;96.70;;;;;;4978027;28;20477;-44
2023/11/21 08:28:36;;;;;;;2.27;1.63;;;10.60;96.70;;;;;;4988916;28;20533;-43
2023/11/21 08:31:05;;;;;;;1.80;1.20;;;10.60;96.70;;;;;;4982881;28;20942;-44
2023/11/21 08:33:33;;;;;;;2.80;1.60;;;10.60;96.70;;;;;;4984087;28;20452;-43
2023/11/21 08:36:04;;;;;;;1.90;1.30;;;10.60;96.70;;;;;;4984744;28;20426;-43
2023/11/21 08:38:37;;;;;;;2.80;1.90;;;10.60;96.70;;;;;;4992753;28;20453;-43
2023/11/21 08:41:08;;;;;;;2.10;1.27;;;10.60;96.60;;;;;;4975552;28;20440;-43
2023/11/21 08:43:39;;;;;;;2.90;1.97;;;10.60;96.60;;;;;;4980763;28;20920;-44
2023/11/21 08:46:08;;;;;;;2.83;2.10;;;10.60;96.60;;;;;;4983922;28;20459;-44
2023/11/21 08:48:37;;;;;;;4.83;2.30;;;10.60;96.70;;;;;;4976871;28;20517;-44
2023/11/21 08:51:06;;;;;;;4.00;1.77;;;10.60;96.70;;;;;;4983192;28;20428;-44
2023/11/21 08:53:35;;;;;;;3.20;1.43;;;10.60;96.70;;;;;;4981509;28;20506;-45
2023/11/21 08:56:04;;;;;;;3.37;2.60;;;10.60;96.70;;;;;;4983189;28;20446;-44
2023/11/21 08:58:33;;;;;;;4.50;3.47;;;10.60;96.90;;;;;;4991448;28;20454;-45
2023/11/21 09:01:01;;;;;;;3.73;2.10;;;10.60;96.80;;;;;;4981313;28;20997;-43
2023/11/21 09:03:29;;;;;;;4.33;2.60;;;10.60;96.80;;;;;;4983422;28;20463;-44
2023/11/21 09:05:59;;;;;;;7.27;2.63;;;10.60;96.70;;;;;;4988367;28;20979;-43
2023/11/21 09:08:29;;;;;;;4.10;2.60;;;10.60;96.90;;;;;;4979924;28;20454;-43
2023/11/21 09:10:59;;;;;;;4.90;2.40;;;10.60;96.80;;;;;;4977788;28;20445;-44
2023/11/21 09:13:27;;;;;;;2.90;1.80;;;10.60;96.80;;;;;;4991500;28;20472;-44
2023/11/21 09:15:55;;;;;;;3.60;2.53;;;10.60;96.80;;;;;;4990535;28;20426;-43
2023/11/21 09:18:23;;;;;;;3.17;2.27;;;10.60;96.80;;;;;;4983084;28;20518;-44
2023/11/21 09:20:51;;;;;;;3.37;2.10;;;10.60;96.80;;;;;;4988598;28;20439;-43
2023/11/21 09:23:20;;;;;;;3.53;2.10;;;10.60;96.80;;;;;;4991857;28;20996;-44
2023/11/21 09:25:49;;;;;;;3.13;2.10;;;10.60;96.70;;;;;;4979796;28;20553;-45
2023/11/21 09:28:22;;;;;;;5.80;3.20;;;10.60;96.80;;;;;;4972807;28;20451;-44
2023/11/21 09:30:50;;;;;;;3.73;3.00;;;10.60;96.80;;;;;;4972927;28;20519;-44
2023/11/21 09:33:22;;;;;;;4.03;2.63;;;10.60;96.70;;;;;;4985624;28;20450;-44
2023/11/21 09:35:52;;;;;;;7.10;2.60;;;10.60;96.70;;;;;;4983143;28;20433;-44
2023/11/21 09:38:20;;;;;;;4.20;2.70;;;10.60;96.80;;;;;;4971103;28;20446;-43
2023/11/21 09:40:49;;;;;;;2.90;2.07;;;10.60;96.80;;;;;;4960326;28;20454;-44
2023/11/21 09:43:19;;;;;;;3.80;2.33;;;10.60;96.80;;;;;;4976897;28;20537;-44
2023/11/21 09:45:53;;;;;;;5.67;4.30;;;10.60;96.80;;;;;;4976904;28;20465;-43
2023/11/21 09:48:21;;;;;;;3.60;1.60;;;10.60;96.80;;;;;;4977327;28;20467;-44
2023/11/21 09:50:51;;;;;;;3.30;2.10;;;10.60;96.80;;;;;;4980745;28;20427;-43
2023/11/21 09:53:24;;;;;;;3.00;2.50;;;10.60;96.70;;;;;;4991336;28;20480;-43
2023/11/21 09:55:54;;;;;;;3.87;2.73;;;10.60;96.80;;;;;;4986885;28;20442;-43
2023/11/21 09:58:25;;;;;;;3.30;2.13;;;10.60;96.80;;;;;;4981201;28;20471;-43
2023/11/21 10:00:58;;;;;;;3.20;2.10;;;10.60;96.70;;;;;;4977195;28;20512;-43
2023/11/21 10:03:28;;;;;;;3.53;2.03;;;10.60;96.70;;;;;;4977986;28;20447;-43
2023/11/21 10:05:59;;;;;;;2.93;1.90;;;10.60;96.70;;;;;;4988578;28;20461;-44
2023/11/21 10:08:29;;;;;;;2.63;1.70;;;10.60;96.80;;;;;;4961258;28;20998;-44
2023/11/21 10:11:15;;;;;;;2.73;1.50;;;10.60;96.70;;;;;;4981792;28;20991;-44
2023/11/21 10:13:46;;;;;;;5.40;2.20;;;10.60;96.70;;;;;;4977491;28;20463;-44
2023/11/21 10:16:21;;;;;;;2.87;1.77;;;10.60;96.70;;;;;;4982910;28;20469;-43
2023/11/21 10:18:54;;;;;;;3.87;2.07;;;10.60;96.70;;;;;;4985962;28;20448;-44
2023/11/21 10:21:31;;;;;;;4.43;2.20;;;10.60;96.70;;;;;;4984653;28;20568;-43
2023/11/21 10:23:59;;;;;;;6.80;2.00;;;10.60;96.70;;;;;;4982662;28;20511;-44
2023/11/21 10:26:28;;;;;;;3.40;1.70;;;10.60;96.70;;;;;;4980829;28;20989;-43
2023/11/21 10:28:59;;;;;;;3.47;2.47;;;10.60;96.70;;;;;;4982928;28;20532;-43
2023/11/21 10:31:29;;;;;;;4.20;2.83;;;10.60;96.70;;;;;;4989879;28;20538;-43
2023/11/21 10:34:12;;;;;;;4.30;2.00;;;10.60;96.70;;;;;;4986218;28;20967;-43
2023/11/21 10:36:41;;;;;;;7.53;4.13;;;10.60;96.60;;;;;;4990238;28;20480;-43
2023/11/21 10:39:09;;;;;;;8.38;4.40;;;10.60;96.80;;;;;;4989885;28;20483;-43
2023/11/21 10:41:39;;;;;;;4.83;3.30;;;10.60;97.50;;;;;;4985005;28;20281;-43
2023/11/21 10:44:11;;;;;;;4.10;2.90;;;10.60;97.40;;;;;;4979332;28;21106;-43
2023/11/21 10:46:42;;;;;;;4.80;2.60;;;10.60;97.20;;;;;;4989936;28;21013;-43
2023/11/21 10:49:12;;;;;;;3.60;2.63;;;10.60;97.10;;;;;;4990154;28;20534;-43
2023/11/21 10:51:44;;;;;;;4.10;2.33;;;10.60;97.10;;;;;;4978086;28;20477;-43
2023/11/21 10:54:13;;;;;;;5.10;2.67;;;10.60;97.10;;;;;;4989180;28;20808;-44
2023/11/21 10:56:44;;;;;;;5.13;2.90;;;10.60;97.00;;;;;;4987060;28;20469;-44
2023/11/21 10:59:16;;;;;;;4.07;2.40;;;10.60;97.00;;;;;;4971438;28;20443;-43
2023/11/21 11:01:52;;;;;;;3.50;2.60;;;10.60;97.00;;;;;;4984779;28;20469;-44
2023/11/21 11:04:23;;;;;;;4.07;2.40;;;10.60;97.40;;;;;;4985893;28;20565;-43
2023/11/21 11:07:03;;;;;;;5.83;2.47;;;10.60;96.90;;;;;;4981119;28;21035;-44
2023/11/21 11:09:36;;;;;;;3.73;2.30;;;10.60;96.80;;;;;;4984010;28;20459;-45
2023/11/21 11:12:06;;;;;;;5.73;2.73;;;10.60;96.70;;;;;;4978224;28;20476;-44
2023/11/21 11:14:41;;;;;;;4.60;2.70;;;10.60;96.90;;;;;;4971522;28;20431;-43
2023/11/21 11:17:11;;;;;;;4.30;2.40;;;10.60;96.90;;;;;;4982252;28;20465;-43
2023/11/21 11:19:40;;;;;;;5.20;2.53;;;10.60;96.80;;;;;;4975015;28;20854;-43
2023/11/21 11:22:21;;;;;;;3.70;2.63;;;10.70;97.20;;;;;;4980749;28;20999;-43
2023/11/21 11:25:22;;;;;;;4.43;2.80;;;10.60;96.70;;;;;;4981113;28;20524;-43
2023/11/21 11:27:55;;;;;;;4.40;2.50;;;10.60;96.70;;;;;;4978082;28;20911;-43
2023/11/21 11:30:41;;;;;;;2.60;1.50;;;10.60;96.70;;;;;;4962866;28;20506;-43
2023/11/21 11:33:25;;;;;;;4.37;2.17;;;10.60;96.70;;;;;;4986138;28;20458;-44
2023/11/21 11:36:02;;;;;;;3.70;2.10;;;10.60;96.60;;;;;;4978140;28;20428;-43
2023/11/21 11:38:33;;;;;;;2.57;1.80;;;10.60;96.70;;;;;;4975505;28;20443;-43
2023/11/21 11:41:07;;;;;;;2.70;1.90;;;10.60;96.60;;;;;;4979146;28;20501;-44
2023/11/21 11:43:43;;;;;;;4.10;2.37;;;10.60;96.60;;;;;;4988492;28;20974;-44
2023/11/21 11:46:14;;;;;;;5.00;2.20;;;10.60;96.70;;;;;;4984549;28;20466;-43
2023/11/21 11:48:46;;;;;;;3.90;2.40;;;10.60;96.70;;;;;;4985063;28;20440;-43
2023/11/21 11:51:17;;;;;;;3.20;2.37;;;10.60;96.70;;;;;;4978435;28;20811;-43
2023/11/21 11:53:46;;;;;;;4.40;2.43;;;10.60;96.70;;;;;;4979887;28;20438;-43
2023/11/21 11:56:25;;;;;;;3.13;1.90;;;10.60;96.70;;;;;;4975473;28;20487;-43
2023/11/21 11:58:54;;;;;;;3.37;2.20;;;10.60;96.70;;;;;;4979364;28;20869;-43
2023/11/21 12:01:25;;;;;;;3.80;1.67;;;10.60;96.70;;;;;;4979579;28;20568;-44
2023/11/21 12:04:33;;;;;;;4.60;2.37;;;10.60;96.70;;;;;;4984199;28;20479;-44
2023/11/21 12:07:05;;;;;;;3.93;1.90;;;10.60;96.70;;;;;;4983570;28;21021;-44
2023/11/21 12:09:34;;;;;;;3.23;2.30;;;10.60;96.70;;;;;;4980502;28;20438;-44
2023/11/21 12:12:03;;;;;;;7.77;2.63;;;10.60;96.70;;;;;;4974635;28;20864;-44
2023/11/21 12:14:32;;;;;;;3.13;2.30;;;10.60;96.70;;;;;;4982143;28;20509;-43
2023/11/21 12:17:02;;;;;;;3.87;2.70;;;10.60;96.70;;;;;;4982157;28;20544;-44
2023/11/21 12:19:31;;;;;;;5.40;2.80;;;10.60;96.70;;;;;;4982407;28;20455;-43
2023/11/21 12:22:00;;;;;;;5.87;2.50;;;10.60;96.70;;;;;;4974339;28;20987;-44
2023/11/21 12:24:29;;;;;;;3.50;2.17;;;10.60;96.70;;;;;;4979323;28;20857;-44
2023/11/21 12:26:57;;;;;;;3.43;2.00;;;10.60;96.60;;;;;;4979231;28;20465;-44
2023/11/21 12:29:25;;;;;;;3.60;2.63;;;10.60;96.70;;;;;;4985187;28;20420;-44
2023/11/21 12:31:53;;;;;;;5.43;2.40;;;10.60;96.60;;;;;;4971546;28;20462;-44
2023/11/21 12:34:27;;;;;;;4.50;2.43;;;10.60;96.60;;;;;;4977545;28;20837;-44
2023/11/21 12:36:56;;;;;;;3.23;2.23;;;10.70;96.70;;;;;;4979286;28;20458;-43
2023/11/21 12:39:24;;;;;;;2.60;1.83;;;10.60;96.60;;;;;;4981891;28;20481;-44
2023/11/21 12:41:56;;;;;;;3.70;2.03;;;10.60;96.70;;;;;;4976932;28;20483;-43
2023/11/21 12:44:24;;;;;;;5.10;2.03;;;10.60;96.60;;;;;;4961795;28;20432;-44
2023/11/21 12:46:53;;;;;;;5.67;2.20;;;10.60;96.70;;;;;;4988292;28;20464;-43
2023/11/21 12:49:21;;;;;;;5.30;2.67;;;10.70;96.70;;;;;;4986073;28;20442;-43
2023/11/21 12:51:50;;;;;;;3.13;2.30;;;10.60;96.60;;;;;;4976922;28;21008;-43
2023/11/21 12:54:22;;;;;;;3.03;1.80;;;10.60;96.60;;;;;;4983261;28;20935;-43
2023/11/21 12:56:51;;;;;;;6.13;2.30;;;10.60;96.60;;;;;;4989464;28;20995;-44
2023/11/21 12:59:22;;;;;;;3.60;2.70;;;10.60;96.60;;;;;;4991975;28;20433;-43
2023/11/21 13:01:51;;;;;;;4.47;2.33;;;10.60;96.70;;;;;;4976173;28;21019;-44